Time;durP1;ratioP1;P1;durP2;ratioP2;P2;SDS_P1;SDS_P2;PMS_P1;PMS_P2;Temp;Humidity;BMP_temperature;BMP_pressure;BME280_temperature;BME280_humidity;BME280_pressure;Samples;Min_cycle;Max_cycle;Signal;HPM_P1;HPM_P2
2023/08/23 00:01:57;;;;;;;11.02;6.28;;;17.40;99.90;;;;;;4930527;29;20066;-56
2023/08/23 00:04:22;;;;;;;9.40;6.50;;;17.50;99.90;;;;;;4930576;29;20174;-56
2023/08/23 00:06:48;;;;;;;8.10;5.60;;;17.50;99.90;;;;;;4930345;29;20536;-57
2023/08/23 00:09:16;;;;;;;9.63;6.53;;;17.60;99.90;;;;;;4947547;29;20518;-56
2023/08/23 00:11:42;;;;;;;10.43;6.70;;;17.60;99.90;;;;;;4949278;28;20031;-56
2023/08/23 00:14:07;;;;;;;8.80;7.10;;;17.70;99.90;;;;;;4949093;29;20097;-56
2023/08/23 00:16:33;;;;;;;10.93;5.95;;;17.80;99.90;;;;;;4949178;28;20031;-56
2023/08/23 00:18:58;;;;;;;9.18;6.18;;;17.90;99.90;;;;;;4947911;29;20046;-56
2023/08/23 00:21:24;;;;;;;6.65;5.75;;;17.90;99.90;;;;;;4929747;29;20028;-56
2023/08/23 00:23:49;;;;;;;8.02;6.35;;;17.90;99.90;;;;;;4930012;29;20450;-56
2023/08/23 00:26:15;;;;;;;9.88;5.38;;;18.00;99.90;;;;;;4929962;29;20035;-56
2023/08/23 00:28:41;;;;;;;12.73;5.47;;;17.90;99.90;;;;;;4929681;29;20039;-56
2023/08/23 00:31:07;;;;;;;7.80;6.40;;;18.00;99.90;;;;;;4930476;29;20374;-56
2023/08/23 00:33:32;;;;;;;7.00;5.85;;;17.90;99.90;;;;;;4930235;29;20036;-56
2023/08/23 00:35:58;;;;;;;11.98;6.88;;;17.90;99.90;;;;;;4930211;29;20035;-56
2023/08/23 00:38:24;;;;;;;15.88;6.30;;;17.90;99.90;;;;;;4937588;29;20031;-56
2023/08/23 00:40:49;;;;;;;13.23;7.25;;;17.90;99.90;;;;;;4945466;28;20027;-56
2023/08/23 00:43:15;;;;;;;10.68;6.50;;;17.90;99.90;;;;;;4947668;29;20035;-56
2023/08/23 00:45:42;;;;;;;9.02;5.95;;;17.90;99.90;;;;;;4944369;28;20086;-57
2023/08/23 00:48:10;;;;;;;16.80;7.70;;;17.90;99.90;;;;;;4940880;28;20412;-57
2023/08/23 00:50:36;;;;;;;18.00;7.65;;;17.90;99.90;;;;;;4948793;28;20027;-57
2023/08/23 00:53:02;;;;;;;11.65;6.78;;;17.90;99.90;;;;;;4948655;28;20527;-57
2023/08/23 00:55:29;;;;;;;14.52;7.20;;;17.90;99.90;;;;;;4944146;28;20024;-58
2023/08/23 00:57:55;;;;;;;12.20;5.60;;;17.90;99.90;;;;;;4940524;29;20034;-57
2023/08/23 01:00:21;;;;;;;8.93;6.20;;;17.90;99.90;;;;;;4943218;28;20512;-57
2023/08/23 01:02:47;;;;;;;11.77;6.88;;;17.90;99.90;;;;;;4943126;28;20548;-57
2023/08/23 01:05:14;;;;;;;14.68;6.57;;;17.90;99.90;;;;;;4938436;29;20032;-58
2023/08/23 01:07:49;;;;;;;9.52;6.55;;;17.90;99.90;;;;;;4943969;28;20509;-57
2023/08/23 01:10:50;;;;;;;12.45;6.35;;;17.80;99.90;;;;;;4947915;29;20392;-57
2023/08/23 01:13:27;;;;;;;13.48;6.90;;;17.80;99.90;;;;;;4948460;28;20023;-57
2023/08/23 01:15:57;;;;;;;10.52;6.15;;;17.80;99.90;;;;;;4948595;29;20082;-57
2023/08/23 01:18:24;;;;;;;11.98;6.70;;;17.70;99.90;;;;;;4942863;28;20028;-57
2023/08/23 01:20:52;;;;;;;9.13;6.72;;;17.70;99.90;;;;;;4938707;28;20034;-57
2023/08/23 01:23:19;;;;;;;8.65;6.10;;;17.70;99.90;;;;;;4941058;29;20031;-57
2023/08/23 01:25:51;;;;;;;9.90;6.50;;;17.70;99.90;;;;;;4940620;29;20038;-56
2023/08/23 01:28:18;;;;;;;12.00;6.95;;;17.60;99.90;;;;;;4940715;28;20149;-56
2023/08/23 01:30:44;;;;;;;15.25;7.22;;;17.70;99.90;;;;;;4943355;29;20019;-56
2023/08/23 01:33:15;;;;;;;7.38;6.25;;;17.60;99.90;;;;;;4945693;28;20024;-57
2023/08/23 01:35:57;;;;;;;9.32;6.28;;;17.60;99.90;;;;;;4937473;29;20468;-56
2023/08/23 01:38:24;;;;;;;8.30;6.28;;;17.60;99.90;;;;;;4943679;28;20032;-56
2023/08/23 01:40:52;;;;;;;13.93;7.60;;;17.60;99.90;;;;;;4951602;28;20020;-57
2023/08/23 01:43:18;;;;;;;12.93;7.45;;;17.60;99.90;;;;;;4951341;28;20496;-56
2023/08/23 01:45:43;;;;;;;12.35;6.57;;;17.60;99.90;;;;;;4951371;28;20084;-56
2023/08/23 01:48:09;;;;;;;11.82;7.05;;;17.60;99.90;;;;;;4950889;29;20042;-56
2023/08/23 01:50:34;;;;;;;11.82;7.55;;;17.60;99.90;;;;;;4951672;28;20088;-57
2023/08/23 01:52:59;;;;;;;13.15;7.13;;;17.60;99.90;;;;;;4947413;29;20162;-57
2023/08/23 01:55:25;;;;;;;10.55;6.85;;;17.50;99.90;;;;;;4951288;29;20106;-57
2023/08/23 01:57:51;;;;;;;16.13;7.80;;;17.50;99.90;;;;;;4951000;28;20441;-56
2023/08/23 02:00:16;;;;;;;9.27;6.60;;;17.60;99.90;;;;;;4951172;29;20032;-56
2023/08/23 02:02:42;;;;;;;9.20;6.13;;;17.50;99.90;;;;;;4951282;28;20054;-56
2023/08/23 02:05:08;;;;;;;12.05;6.95;;;17.50;99.90;;;;;;4951571;29;20077;-57
2023/08/23 02:07:33;;;;;;;13.18;7.35;;;17.50;99.90;;;;;;4951123;29;20122;-56
2023/08/23 02:09:59;;;;;;;10.73;7.50;;;17.50;99.90;;;;;;4963380;28;20428;-56
2023/08/23 02:12:24;;;;;;;11.80;7.60;;;17.50;99.90;;;;;;4951522;28;20510;-56
2023/08/23 02:14:50;;;;;;;13.60;8.05;;;17.50;99.90;;;;;;4951333;28;20034;-56
2023/08/23 02:17:15;;;;;;;18.55;8.57;;;17.50;99.90;;;;;;4950853;28;20528;-57
2023/08/23 02:19:41;;;;;;;14.10;8.43;;;17.50;99.90;;;;;;4951355;29;20333;-57
2023/08/23 02:22:06;;;;;;;21.92;9.23;;;17.50;99.90;;;;;;4950947;29;20028;-57
2023/08/23 02:24:32;;;;;;;11.70;7.82;;;17.50;99.90;;;;;;4951064;29;20034;-57
2023/08/23 02:26:57;;;;;;;12.20;7.20;;;17.50;99.90;;;;;;4950528;29;20032;-57
2023/08/23 02:29:23;;;;;;;12.43;7.40;;;17.50;99.90;;;;;;4951146;29;20024;-57
2023/08/23 02:31:48;;;;;;;7.85;6.00;;;17.50;99.90;;;;;;4951018;28;20108;-57
2023/08/23 02:34:14;;;;;;;12.75;7.30;;;17.50;99.90;;;;;;4948490;29;20027;-56
2023/08/23 02:36:39;;;;;;;11.45;7.72;;;17.50;99.90;;;;;;4950829;29;20435;-57
2023/08/23 02:39:05;;;;;;;9.15;6.72;;;17.50;99.90;;;;;;4939190;28;20174;-57
2023/08/23 02:41:30;;;;;;;12.95;7.60;;;17.50;99.90;;;;;;4950715;28;20028;-57
2023/08/23 02:43:56;;;;;;;7.38;6.03;;;17.50;99.90;;;;;;4950617;28;20081;-57
2023/08/23 02:46:21;;;;;;;18.73;8.95;;;17.50;99.90;;;;;;4949100;28;20408;-57
2023/08/23 02:48:47;;;;;;;16.08;8.82;;;17.50;99.90;;;;;;4961684;28;20070;-57
2023/08/23 02:51:12;;;;;;;12.48;8.10;;;17.50;99.90;;;;;;4949371;29;20527;-57
2023/08/23 02:53:38;;;;;;;11.93;7.65;;;17.40;99.90;;;;;;4951036;28;20025;-57
2023/08/23 02:56:04;;;;;;;15.25;7.38;;;17.40;99.90;;;;;;4950708;29;20027;-57
2023/08/23 02:58:29;;;;;;;10.35;7.90;;;17.40;99.90;;;;;;4950289;29;20366;-56
2023/08/23 03:00:55;;;;;;;10.15;7.18;;;17.40;99.90;;;;;;4950750;28;20031;-57
2023/08/23 03:03:20;;;;;;;7.45;6.65;;;17.40;99.90;;;;;;4950326;28;20035;-56
2023/08/23 03:05:53;;;;;;;12.82;7.35;;;17.40;99.90;;;;;;4950596;28;20038;-57
2023/08/23 03:08:18;;;;;;;9.50;7.00;;;17.40;99.90;;;;;;4949858;28;20023;-57
2023/08/23 03:10:44;;;;;;;10.48;7.47;;;17.30;99.90;;;;;;4950342;29;20165;-56
2023/08/23 03:13:10;;;;;;;11.45;8.32;;;17.30;99.90;;;;;;4950110;28;20081;-56
2023/08/23 03:15:35;;;;;;;11.00;7.68;;;17.30;99.90;;;;;;4950248;28;20066;-57
2023/08/23 03:18:01;;;;;;;14.25;8.00;;;17.20;99.90;;;;;;4945353;28;20059;-56
2023/08/23 03:20:26;;;;;;;10.45;7.03;;;17.20;99.90;;;;;;4950298;28;20027;-57
2023/08/23 03:22:52;;;;;;;20.30;8.10;;;17.20;99.90;;;;;;4950057;29;20031;-57
2023/08/23 03:25:17;;;;;;;15.75;9.27;;;17.20;99.90;;;;;;4949963;29;20564;-57
2023/08/23 03:27:43;;;;;;;14.05;8.48;;;17.20;99.90;;;;;;4949635;28;20037;-57
2023/08/23 03:30:08;;;;;;;10.15;7.03;;;17.10;99.90;;;;;;4946666;28;20085;-57
2023/08/23 03:32:34;;;;;;;13.60;8.38;;;17.10;99.90;;;;;;4950187;28;20114;-57
2023/08/23 03:34:59;;;;;;;10.05;8.05;;;17.10;99.90;;;;;;4945470;28;20031;-57
2023/08/23 03:37:25;;;;;;;13.90;9.30;;;17.10;99.90;;;;;;4941367;28;20077;-57
2023/08/23 03:39:50;;;;;;;12.70;7.93;;;17.00;99.90;;;;;;4949814;29;20031;-57
2023/08/23 03:42:16;;;;;;;12.88;8.07;;;17.00;99.90;;;;;;4949497;28;20058;-58
2023/08/23 03:44:41;;;;;;;12.70;8.88;;;16.90;99.90;;;;;;4949709;28;20106;-57
2023/08/23 03:47:07;;;;;;;11.63;9.02;;;16.90;99.90;;;;;;4949201;28;20611;-57
2023/08/23 03:49:35;;;;;;;13.38;8.70;;;16.90;99.90;;;;;;4949774;29;20416;-57
2023/08/23 03:52:00;;;;;;;14.35;9.68;;;16.90;99.90;;;;;;4945075;28;20051;-58
2023/08/23 03:54:26;;;;;;;17.45;10.65;;;16.90;99.90;;;;;;4949546;29;20181;-58
2023/08/23 03:56:51;;;;;;;15.07;11.23;;;16.80;99.90;;;;;;4948735;29;20388;-58
2023/08/23 03:59:17;;;;;;;14.70;10.23;;;16.80;99.90;;;;;;4949123;28;20082;-58
2023/08/23 04:01:43;;;;;;;16.23;10.02;;;16.70;99.90;;;;;;4949354;29;20032;-57
2023/08/23 04:04:09;;;;;;;10.82;8.57;;;16.70;99.90;;;;;;4949309;28;20031;-57
2023/08/23 04:06:35;;;;;;;15.52;10.23;;;16.70;99.90;;;;;;4949333;28;20043;-57
2023/08/23 04:09:00;;;;;;;13.48;9.75;;;16.70;99.90;;;;;;4948749;28;20104;-57
2023/08/23 04:11:26;;;;;;;13.77;10.02;;;16.60;99.90;;;;;;4930459;29;20023;-57
2023/08/23 04:13:51;;;;;;;14.10;9.38;;;16.60;99.90;;;;;;4930163;29;20575;-58
2023/08/23 04:16:17;;;;;;;14.32;11.73;;;16.60;99.90;;;;;;4930074;29;20032;-57
2023/08/23 04:18:42;;;;;;;15.63;12.60;;;16.60;99.90;;;;;;4929733;29;20024;-58
2023/08/23 04:21:08;;;;;;;19.48;11.90;;;16.60;99.90;;;;;;4930132;29;20103;-58
2023/08/23 04:23:33;;;;;;;16.25;12.15;;;16.60;99.90;;;;;;4930226;29;20485;-58
2023/08/23 04:25:59;;;;;;;17.08;11.48;;;16.60;99.90;;;;;;4930402;29;20028;-57
2023/08/23 04:28:24;;;;;;;18.48;13.18;;;16.60;99.90;;;;;;4929790;29;20030;-57
2023/08/23 04:30:50;;;;;;;21.33;14.35;;;16.60;99.90;;;;;;4930352;29;20034;-57
2023/08/23 04:33:15;;;;;;;15.35;11.93;;;16.50;99.90;;;;;;4930644;29;20110;-58
2023/08/23 04:35:41;;;;;;;15.63;11.65;;;16.50;99.90;;;;;;4930153;29;20432;-58
2023/08/23 04:38:10;;;;;;;18.52;12.52;;;16.50;99.90;;;;;;4948491;29;20541;-57
2023/08/23 04:40:36;;;;;;;18.42;11.57;;;16.50;99.90;;;;;;4949299;28;20050;-58
2023/08/23 04:43:01;;;;;;;12.57;10.35;;;16.50;99.90;;;;;;4943005;28;20264;-57
2023/08/23 04:45:27;;;;;;;13.43;10.68;;;16.50;99.90;;;;;;4936827;29;20493;-57
2023/08/23 04:47:52;;;;;;;15.25;12.68;;;16.50;99.90;;;;;;4943554;29;20416;-57
2023/08/23 04:50:19;;;;;;;20.05;13.02;;;16.50;99.90;;;;;;4948733;29;20034;-58
2023/08/23 04:52:44;;;;;;;17.85;12.25;;;16.50;99.90;;;;;;4949038;28;20034;-57
2023/08/23 04:55:10;;;;;;;19.23;11.70;;;16.50;99.90;;;;;;4948813;29;20499;-57
2023/08/23 04:57:36;;;;;;;16.35;10.95;;;16.50;99.90;;;;;;4948839;28;20035;-57
2023/08/23 05:00:02;;;;;;;19.30;12.85;;;16.50;99.90;;;;;;4944377;29;20515;-57
2023/08/23 05:02:27;;;;;;;20.02;13.85;;;16.50;99.90;;;;;;4948292;29;20023;-56
2023/08/23 05:04:53;;;;;;;18.10;13.00;;;16.50;99.90;;;;;;4948817;28;20024;-57
2023/08/23 05:07:18;;;;;;;16.95;12.35;;;16.50;99.90;;;;;;4947811;29;20028;-57
2023/08/23 05:09:44;;;;;;;16.98;10.90;;;16.50;99.90;;;;;;4948582;28;20019;-57
2023/08/23 05:12:09;;;;;;;17.02;10.45;;;16.50;99.90;;;;;;4948598;28;20102;-56
2023/08/23 05:14:35;;;;;;;15.38;11.30;;;16.60;99.90;;;;;;4944203;28;20444;-56
2023/08/23 05:17:00;;;;;;;14.68;9.52;;;16.60;99.90;;;;;;4944245;29;20043;-56
2023/08/23 05:19:26;;;;;;;19.52;10.20;;;16.60;99.90;;;;;;4943174;29;20081;-56
2023/08/23 05:21:51;;;;;;;17.70;11.65;;;16.60;99.90;;;;;;4939601;29;20039;-56
2023/08/23 05:24:17;;;;;;;15.98;10.60;;;16.60;99.90;;;;;;4940579;28;20077;-56
2023/08/23 05:26:42;;;;;;;14.95;11.45;;;16.70;99.90;;;;;;4945458;29;20034;-56
2023/08/23 05:29:08;;;;;;;16.13;11.07;;;16.70;99.90;;;;;;4943813;28;20123;-56
2023/08/23 05:31:33;;;;;;;14.43;11.20;;;16.70;99.90;;;;;;4948463;28;20126;-56
2023/08/23 05:33:58;;;;;;;15.88;11.48;;;16.80;99.90;;;;;;4948179;29;20027;-56
2023/08/23 05:36:24;;;;;;;17.80;12.25;;;16.80;99.90;;;;;;4947905;29;20089;-56
2023/08/23 05:38:50;;;;;;;16.10;11.32;;;16.80;99.90;;;;;;4947943;29;20417;-56
2023/08/23 05:41:15;;;;;;;10.63;8.93;;;16.80;99.90;;;;;;4948138;28;20039;-56
2023/08/23 05:43:41;;;;;;;16.95;10.00;;;16.80;99.90;;;;;;4943662;28;20455;-57
2023/08/23 05:46:07;;;;;;;14.98;11.63;;;16.80;99.90;;;;;;4944708;29;20031;-57
2023/08/23 05:48:34;;;;;;;11.18;9.55;;;16.80;99.90;;;;;;4947756;28;20031;-57
2023/08/23 05:51:02;;;;;;;14.20;9.82;;;16.80;99.90;;;;;;4948030;28;20026;-56
2023/08/23 05:53:27;;;;;;;12.45;8.23;;;16.80;99.90;;;;;;4947923;28;20047;-57
2023/08/23 05:55:53;;;;;;;15.13;11.80;;;16.80;99.90;;;;;;4948147;28;20169;-57
2023/08/23 05:58:18;;;;;;;18.33;10.85;;;16.90;99.90;;;;;;4944454;29;20337;-57
2023/08/23 06:00:46;;;;;;;17.33;10.68;;;16.90;99.90;;;;;;4948085;28;20042;-57
2023/08/23 06:03:31;;;;;;;14.90;11.30;;;16.90;99.90;;;;;;4947864;28;20031;-57
2023/08/23 06:05:57;;;;;;;17.20;12.55;;;17.00;99.90;;;;;;4984055;28;20030;-57
2023/08/23 06:08:23;;;;;;;17.25;12.02;;;16.90;99.90;;;;;;4940963;28;20392;-56
2023/08/23 06:10:48;;;;;;;19.90;14.18;;;17.00;99.90;;;;;;4928820;29;20039;-57
2023/08/23 06:13:15;;;;;;;19.63;12.15;;;17.00;99.90;;;;;;4941746;28;20039;-56
2023/08/23 06:15:40;;;;;;;22.77;14.10;;;17.00;99.90;;;;;;4943569;28;20110;-57
2023/08/23 06:18:07;;;;;;;14.98;11.63;;;17.00;99.90;;;;;;4943990;29;20102;-56
2023/08/23 06:20:32;;;;;;;13.68;10.27;;;17.10;99.90;;;;;;4949540;28;20035;-56
2023/08/23 06:22:58;;;;;;;14.02;9.98;;;17.20;99.90;;;;;;4950922;28;20034;-56
2023/08/23 06:25:25;;;;;;;14.32;10.40;;;17.20;99.90;;;;;;4950980;29;20036;-56
2023/08/23 06:27:50;;;;;;;18.42;12.55;;;17.30;99.90;;;;;;4950660;29;20373;-56
2023/08/23 06:30:16;;;;;;;18.67;13.38;;;17.30;99.90;;;;;;4950907;28;20034;-56
2023/08/23 06:32:48;;;;;;;15.48;10.05;;;17.30;99.90;;;;;;4951013;28;20106;-56
2023/08/23 06:35:15;;;;;;;11.90;9.32;;;17.40;99.90;;;;;;4950960;28;20042;-56
2023/08/23 06:37:41;;;;;;;17.70;11.77;;;17.50;99.90;;;;;;4946418;28;20396;-57
2023/08/23 06:40:13;;;;;;;17.02;10.00;;;17.50;99.90;;;;;;4947535;29;20062;-57
2023/08/23 06:42:39;;;;;;;16.13;10.38;;;17.50;99.90;;;;;;4950844;29;20035;-55
2023/08/23 06:45:06;;;;;;;19.48;13.48;;;17.60;99.90;;;;;;4946644;28;20114;-57
2023/08/23 06:47:33;;;;;;;16.08;11.38;;;17.60;99.90;;;;;;4948836;28;20080;-57
2023/08/23 06:49:58;;;;;;;15.35;10.57;;;17.70;99.90;;;;;;4950795;28;20024;-57
2023/08/23 06:52:25;;;;;;;17.58;11.77;;;17.80;99.90;;;;;;4950554;28;20042;-56
2023/08/23 06:54:50;;;;;;;13.00;9.85;;;17.90;99.90;;;;;;4950515;28;20050;-56
2023/08/23 06:57:16;;;;;;;17.70;10.93;;;17.90;99.90;;;;;;4949974;29;20035;-56
2023/08/23 06:59:41;;;;;;;17.73;10.90;;;18.00;99.90;;;;;;4950436;29;20035;-56
2023/08/23 07:02:07;;;;;;;12.25;9.25;;;18.10;99.90;;;;;;4973008;28;20040;-56
2023/08/23 07:04:32;;;;;;;11.77;8.20;;;18.20;99.90;;;;;;4950234;29;20028;-57
2023/08/23 07:06:58;;;;;;;16.45;8.30;;;18.30;99.90;;;;;;4949909;28;20031;-57
2023/08/23 07:09:23;;;;;;;22.02;12.18;;;18.50;99.90;;;;;;4950270;29;20046;-57
2023/08/23 07:11:49;;;;;;;16.15;10.10;;;18.70;99.90;;;;;;4950477;29;20065;-57
2023/08/23 07:14:14;;;;;;;18.95;9.98;;;18.90;99.90;;;;;;4950227;28;20411;-57
2023/08/23 07:16:40;;;;;;;18.88;10.07;;;19.20;99.90;;;;;;4950435;28;20043;-57
2023/08/23 07:19:05;;;;;;;12.55;8.82;;;19.30;99.90;;;;;;4949881;29;20024;-57
2023/08/23 07:21:31;;;;;;;16.58;7.72;;;19.50;99.90;;;;;;4950059;29;20118;-57
2023/08/23 07:23:56;;;;;;;12.00;7.85;;;19.80;99.90;;;;;;4949841;28;20019;-58
2023/08/23 07:26:24;;;;;;;10.25;6.97;;;20.10;99.90;;;;;;4963214;28;20469;-57
2023/08/23 07:28:49;;;;;;;14.82;7.75;;;20.40;99.90;;;;;;4949813;28;20400;-57
2023/08/23 07:31:15;;;;;;;12.98;7.25;;;20.60;99.90;;;;;;4948988;28;20032;-57
2023/08/23 07:33:40;;;;;;;13.88;6.22;;;20.80;99.90;;;;;;4961549;28;20392;-57
2023/08/23 07:36:06;;;;;;;10.05;6.20;;;21.00;99.90;;;;;;4945755;29;20107;-58
2023/08/23 07:38:32;;;;;;;9.15;6.05;;;21.10;99.90;;;;;;4949728;28;20051;-58
2023/08/23 07:41:00;;;;;;;14.45;7.15;;;21.10;99.90;;;;;;4949587;28;20033;-57
2023/08/23 07:43:26;;;;;;;10.70;5.25;;;21.20;99.90;;;;;;4948457;28;20031;-58
2023/08/23 07:45:59;;;;;;;6.47;4.47;;;21.40;99.90;;;;;;4948399;28;20227;-58
2023/08/23 07:48:26;;;;;;;13.70;5.57;;;21.60;99.90;;;;;;4947671;28;20077;-57
2023/08/23 07:50:55;;;;;;;15.00;4.90;;;21.80;99.90;;;;;;4948485;28;20085;-58
2023/08/23 07:53:21;;;;;;;7.85;4.38;;;22.00;99.90;;;;;;4948450;28;20272;-57
2023/08/23 07:55:47;;;;;;;9.40;5.00;;;22.10;99.90;;;;;;4948617;28;20027;-57
2023/08/23 07:58:13;;;;;;;5.90;4.45;;;22.10;99.90;;;;;;4949094;28;20073;-58
2023/08/23 08:00:39;;;;;;;4.72;3.58;;;22.10;99.90;;;;;;4938198;29;20389;-57
2023/08/23 08:03:05;;;;;;;7.32;3.80;;;22.20;99.90;;;;;;4940578;28;20027;-57
2023/08/23 08:05:32;;;;;;;5.50;3.67;;;22.30;99.90;;;;;;4962525;28;20035;-57
2023/08/23 08:07:57;;;;;;;7.63;4.00;;;22.50;99.90;;;;;;4949071;28;20353;-56
2023/08/23 08:10:23;;;;;;;5.85;3.10;;;23.00;99.90;;;;;;4949613;28;20050;-57
2023/08/23 08:12:48;;;;;;;10.13;3.00;;;23.40;99.90;;;;;;4944507;28;20055;-57
2023/08/23 08:15:15;;;;;;;6.15;3.60;;;23.60;99.90;;;;;;4942617;29;20032;-57
2023/08/23 08:17:40;;;;;;;6.22;3.25;;;24.10;99.90;;;;;;4941326;28;20508;-57
2023/08/23 08:20:08;;;;;;;5.70;3.33;;;25.00;99.90;;;;;;4938223;29;20055;-57
2023/08/23 08:22:34;;;;;;;6.85;3.05;;;26.30;99.90;;;;;;4942005;29;20038;-57
2023/08/23 08:25:01;;;;;;;6.78;3.47;;;26.90;98.10;;;;;;4942440;28;20358;-58
2023/08/23 08:27:26;;;;;;;4.60;2.88;;;28.30;95.90;;;;;;4948768;28;20028;-58
2023/08/23 08:29:52;;;;;;;5.00;2.60;;;29.50;93.60;;;;;;4949413;28;20149;-58
2023/08/23 08:32:18;;;;;;;4.60;2.53;;;30.40;92.50;;;;;;4936699;29;21129;-58
2023/08/23 08:34:43;;;;;;;4.50;2.60;;;31.00;90.50;;;;;;4938367;28;20504;-59
2023/08/23 08:37:09;;;;;;;7.95;2.97;;;31.90;87.00;;;;;;4937331;28;20563;-59
2023/08/23 08:39:34;;;;;;;5.18;2.67;;;32.40;84.10;;;;;;4936351;29;20035;-59
2023/08/23 08:42:00;;;;;;;5.57;2.38;;;32.30;83.30;;;;;;4937992;29;20115;-59
2023/08/23 08:44:26;;;;;;;3.75;2.20;;;31.70;84.00;;;;;;4935864;29;20384;-59
2023/08/23 08:46:52;;;;;;;5.28;2.40;;;31.40;81.50;;;;;;4936069;28;20040;-58
2023/08/23 08:49:18;;;;;;;6.90;3.60;;;31.60;80.10;;;;;;4941804;28;20420;-59
2023/08/23 08:51:47;;;;;;;3.97;2.42;;;31.60;79.30;;;;;;4939522;28;20054;-58
2023/08/23 08:54:15;;;;;;;5.93;3.00;;;32.20;79.40;;;;;;4941827;29;20023;-59
2023/08/23 08:56:46;;;;;;;5.63;2.70;;;32.70;79.00;;;;;;4939583;29;20047;-58
2023/08/23 08:59:13;;;;;;;8.20;2.78;;;32.70;77.60;;;;;;4940929;28;20024;-58
2023/08/23 09:01:40;;;;;;;5.28;2.50;;;33.20;76.60;;;;;;4941723;28;20480;-58
2023/08/23 09:04:07;;;;;;;5.88;2.83;;;33.50;75.70;;;;;;4992816;28;20031;-59
2023/08/23 09:06:36;;;;;;;5.68;2.00;;;34.10;74.70;;;;;;4942612;28;20534;-59
2023/08/23 09:09:03;;;;;;;5.57;2.55;;;34.10;75.30;;;;;;4937782;28;20034;-59
2023/08/23 09:11:29;;;;;;;5.00;2.80;;;34.40;73.90;;;;;;4941310;29;20123;-59
2023/08/23 09:13:55;;;;;;;3.70;2.33;;;34.50;72.20;;;;;;4954852;28;20032;-59
2023/08/23 09:16:23;;;;;;;4.15;2.22;;;34.80;72.90;;;;;;4938828;28;20038;-59
2023/08/23 09:18:49;;;;;;;7.50;3.33;;;35.10;72.90;;;;;;4955213;28;20477;-59
2023/08/23 09:21:14;;;;;;;4.22;2.88;;;35.40;71.50;;;;;;4942362;28;20038;-58
2023/08/23 09:23:40;;;;;;;7.63;2.65;;;35.90;68.10;;;;;;4944321;28;20095;-59
2023/08/23 09:26:06;;;;;;;3.22;2.38;;;36.00;67.70;;;;;;4936770;28;20058;-59
2023/08/23 09:28:32;;;;;;;4.00;2.10;;;35.90;67.40;;;;;;4945278;28;20036;-58
2023/08/23 09:30:58;;;;;;;3.95;2.42;;;36.00;67.60;;;;;;4943681;28;20088;-58
2023/08/23 09:33:24;;;;;;;4.80;2.08;;;36.00;68.60;;;;;;4943029;28;20030;-57
2023/08/23 09:35:50;;;;;;;3.78;2.47;;;35.90;67.30;;;;;;4946278;28;20436;-58
2023/08/23 09:38:21;;;;;;;4.53;2.78;;;36.20;67.70;;;;;;5027795;28;20040;-59
2023/08/23 09:40:48;;;;;;;3.85;2.08;;;36.40;65.90;;;;;;4946382;28;20023;-58
2023/08/23 09:43:17;;;;;;;4.03;2.42;;;35.10;68.50;;;;;;4943593;28;20332;-58
2023/08/23 09:45:47;;;;;;;4.07;2.67;;;34.30;69.70;;;;;;4938806;28;20106;-58
2023/08/23 09:48:17;;;;;;;4.20;2.47;;;34.40;70.80;;;;;;4937091;28;20023;-58
2023/08/23 09:50:42;;;;;;;6.38;2.92;;;35.00;68.40;;;;;;4938272;28;20488;-57
2023/08/23 09:53:20;;;;;;;7.47;2.95;;;35.30;68.00;;;;;;4935222;28;20043;-57
2023/08/23 09:55:47;;;;;;;7.45;3.67;;;33.90;69.20;;;;;;4937673;28;20032;-57
2023/08/23 09:58:13;;;;;;;11.55;3.10;;;33.90;68.60;;;;;;4937518;28;20446;-58
2023/08/23 10:00:39;;;;;;;12.15;3.67;;;34.30;67.50;;;;;;4937954;28;20039;-57
2023/08/23 10:03:05;;;;;;;5.25;2.60;;;34.70;69.80;;;;;;4940823;28;20389;-58
2023/08/23 10:05:34;;;;;;;7.13;2.50;;;35.20;68.90;;;;;;4937606;28;20039;-57
2023/08/23 10:08:02;;;;;;;4.50;2.85;;;35.00;67.30;;;;;;4937110;28;20031;-57
2023/08/23 10:10:30;;;;;;;5.57;3.88;;;33.60;69.70;;;;;;4935872;28;20032;-57
2023/08/23 10:13:00;;;;;;;7.82;4.40;;;32.50;71.90;;;;;;4937256;28;20500;-57
2023/08/23 10:15:32;;;;;;;7.28;3.97;;;32.30;71.70;;;;;;4941913;28;20511;-57
2023/08/23 10:18:03;;;;;;;9.63;4.43;;;31.70;71.70;;;;;;4942374;28;20420;-57
2023/08/23 10:20:33;;;;;;;11.75;4.55;;;32.70;71.60;;;;;;4943855;28;20031;-57
2023/08/23 10:22:58;;;;;;;4.35;2.88;;;33.70;69.90;;;;;;4957010;28;20451;-57
2023/08/23 10:25:24;;;;;;;5.38;3.75;;;34.90;68.60;;;;;;4939286;28;20106;-57
2023/08/23 10:27:53;;;;;;;3.83;2.83;;;34.90;68.00;;;;;;4943473;28;20098;-57
2023/08/23 10:30:26;;;;;;;6.05;3.00;;;33.80;69.20;;;;;;4942681;29;20362;-57
2023/08/23 10:32:53;;;;;;;5.35;2.92;;;34.60;70.10;;;;;;4939076;28;20028;-56
2023/08/23 10:35:29;;;;;;;6.15;3.90;;;35.20;66.80;;;;;;4939875;29;20035;-57
2023/08/23 10:37:56;;;;;;;5.80;3.03;;;35.80;66.10;;;;;;4937579;28;20429;-56
2023/08/23 10:40:22;;;;;;;4.05;2.15;;;36.00;65.20;;;;;;4940527;29;20106;-57
2023/08/23 10:42:49;;;;;;;4.55;2.22;;;35.50;64.90;;;;;;4939833;29;20111;-57
2023/08/23 10:45:16;;;;;;;4.80;2.60;;;34.10;65.80;;;;;;4941505;29;20051;-57
2023/08/23 10:47:42;;;;;;;3.33;2.63;;;32.50;67.20;;;;;;4941539;28;20654;-57
2023/08/23 10:50:08;;;;;;;5.32;3.10;;;31.50;70.00;;;;;;4940980;28;20038;-57
2023/08/23 10:52:33;;;;;;;3.92;2.70;;;30.80;74.30;;;;;;4937970;28;20106;-57
2023/08/23 10:55:00;;;;;;;7.32;3.05;;;30.20;73.90;;;;;;4940011;28;20098;-57
2023/08/23 10:57:25;;;;;;;6.32;2.92;;;29.30;78.70;;;;;;4938997;28;20054;-56
2023/08/23 10:59:51;;;;;;;5.95;2.95;;;29.00;80.30;;;;;;4942468;28;20035;-56
2023/08/23 11:02:17;;;;;;;6.20;2.80;;;28.80;78.00;;;;;;4941618;28;20044;-56
2023/08/23 11:04:43;;;;;;;4.20;2.50;;;30.10;75.70;;;;;;4943555;28;20028;-56
2023/08/23 11:07:08;;;;;;;9.70;2.10;;;31.70;71.90;;;;;;4940748;28;20031;-57
2023/08/23 11:09:34;;;;;;;4.18;2.00;;;32.70;71.40;;;;;;4941433;28;20108;-56
2023/08/23 11:12:01;;;;;;;2.08;1.67;;;33.50;68.60;;;;;;4939690;28;20518;-56
2023/08/23 11:14:27;;;;;;;2.53;1.50;;;34.30;68.20;;;;;;4936490;28;20421;-56
2023/08/23 11:16:52;;;;;;;3.78;2.05;;;34.80;65.70;;;;;;4936847;28;20086;-57
2023/08/23 11:19:18;;;;;;;4.82;2.00;;;35.10;65.20;;;;;;4936081;28;20116;-56
2023/08/23 11:21:43;;;;;;;6.28;2.38;;;35.10;65.80;;;;;;4944128;28;20031;-56
2023/08/23 11:24:09;;;;;;;4.82;1.90;;;34.90;65.40;;;;;;4949330;28;20028;-56
2023/08/23 11:26:36;;;;;;;5.38;2.15;;;34.00;63.90;;;;;;4949254;28;20431;-56
2023/08/23 11:29:02;;;;;;;2.47;1.75;;;33.00;65.60;;;;;;4949626;28;20431;-56
2023/08/23 11:31:29;;;;;;;6.82;2.30;;;32.10;67.10;;;;;;4949781;28;20480;-56
2023/08/23 11:33:57;;;;;;;8.00;2.53;;;32.30;69.10;;;;;;4950292;28;20062;-56
2023/08/23 11:36:23;;;;;;;3.25;1.90;;;32.70;67.50;;;;;;4949599;28;20089;-56
2023/08/23 11:38:49;;;;;;;7.18;2.20;;;32.10;67.20;;;;;;4944467;28;20035;-56
2023/08/23 11:41:25;;;;;;;4.07;1.90;;;31.70;67.50;;;;;;4939076;28;20035;-56
2023/08/23 11:43:53;;;;;;;3.08;1.80;;;32.50;68.80;;;;;;4940193;28;20067;-56
2023/08/23 11:46:18;;;;;;;2.97;1.60;;;33.10;69.00;;;;;;4942616;28;20531;-56
2023/08/23 11:48:44;;;;;;;4.53;2.05;;;33.40;66.70;;;;;;4944933;28;20114;-58
2023/08/23 11:51:09;;;;;;;3.45;1.88;;;33.60;67.00;;;;;;4939176;28;20106;-58
2023/08/23 11:53:35;;;;;;;2.90;1.52;;;32.90;64.10;;;;;;4940984;28;20067;-58
2023/08/23 11:56:05;;;;;;;4.03;1.90;;;32.00;66.50;;;;;;4942342;28;20494;-57
2023/08/23 11:58:30;;;;;;;;;;;31.70;69.90;;;;;;4947694;28;20046;-57
2023/08/23 12:00:56;;;;;;;5.90;2.00;;;32.50;65.80;;;;;;4937769;28;19911;-57
2023/08/23 12:03:21;;;;;;;4.95;1.92;;;33.00;62.80;;;;;;4939370;28;20032;-57
2023/08/23 12:05:47;;;;;;;6.93;2.33;;;33.30;62.90;;;;;;4942271;28;20043;-57
2023/08/23 12:08:12;;;;;;;3.85;2.00;;;32.60;64.70;;;;;;4946897;28;20019;-57
2023/08/23 12:10:38;;;;;;;4.15;1.63;;;32.90;64.50;;;;;;4946056;28;20039;-58
2023/08/23 12:13:03;;;;;;;3.00;1.70;;;33.10;67.90;;;;;;4940200;28;20044;-57
2023/08/23 12:15:29;;;;;;;2.65;1.45;;;32.80;70.20;;;;;;4940370;28;20027;-58
2023/08/23 12:17:55;;;;;;;3.95;1.80;;;32.90;68.00;;;;;;4942274;28;20042;-58
2023/08/23 12:20:21;;;;;;;4.30;2.17;;;32.20;72.40;;;;;;4942260;28;20031;-57
2023/08/23 12:22:47;;;;;;;5.57;2.10;;;32.00;66.60;;;;;;4938238;28;20488;-57
2023/08/23 12:25:13;;;;;;;3.38;1.67;;;32.20;69.00;;;;;;4944395;28;20393;-57
2023/08/23 12:27:39;;;;;;;6.50;2.10;;;32.10;70.50;;;;;;4941690;28;20056;-57
2023/08/23 12:30:06;;;;;;;5.47;2.20;;;31.80;70.00;;;;;;4934343;28;20023;-57
2023/08/23 12:32:31;;;;;;;7.22;2.35;;;30.90;71.00;;;;;;4937733;28;20046;-57
2023/08/23 12:34:57;;;;;;;5.38;2.35;;;30.60;72.40;;;;;;4930362;28;20027;-57
2023/08/23 12:37:23;;;;;;;4.60;1.95;;;30.90;71.70;;;;;;4941683;28;20032;-59